Time;durP1;ratioP1;P1;durP2;ratioP2;P2;SDS_P1;SDS_P2;PMS_P1;PMS_P2;Temp;Humidity;BMP_temperature;BMP_pressure;BME280_temperature;BME280_humidity;BME280_pressure;Samples;Min_cycle;Max_cycle;Signal;HPM_P1;HPM_P2
2021/05/10 00:01:27;;;;;;;2.93;2.73;;;;;;;18.24;56.43;156049.84;5106669;28;20921;-89
2021/05/10 00:04:03;;;;;;;3.43;3.03;;;;;;;18.23;56.74;156048.53;5073036;28;20905;-89
2021/05/10 00:06:38;;;;;;;2.50;2.30;;;;;;;18.22;56.28;156044.59;5072502;28;20418;-89
2021/05/10 00:09:13;;;;;;;2.83;2.60;;;;;;;18.20;56.92;156039.38;5057294;28;20465;-89
2021/05/10 00:11:49;;;;;;;3.33;3.03;;;;;;;18.23;58.20;156048.53;5106130;28;20446;-89
2021/05/10 00:14:37;;;;;;;2.60;2.40;;;;;;;18.23;56.55;156048.53;5106624;28;20449;-89
2021/05/10 00:17:12;;;;;;;3.70;2.70;;;;;;;18.26;57.56;156055.03;5073569;28;20409;-89
2021/05/10 00:19:48;;;;;;;4.13;2.70;;;;;;;18.22;57.83;156045.91;5072799;28;20410;-89
2021/05/10 00:22:23;;;;;;;2.87;2.60;;;;;;;18.21;57.25;156042.00;5072676;28;20932;-89
2021/05/10 00:24:58;;;;;;;3.40;3.10;;;;;;;18.17;59.83;156032.88;5072677;28;20474;-89
2021/05/10 00:27:34;;;;;;;2.33;2.13;;;;;;;18.15;58.02;156027.69;5073702;28;20410;-89
2021/05/10 00:30:10;;;;;;;2.97;2.40;;;;;;;18.11;61.63;156017.25;5073988;28;20469;-89
2021/05/10 00:32:45;;;;;;;2.87;2.40;;;;;;;18.06;59.97;156004.22;5072762;28;20481;-89
2021/05/10 00:35:22;;;;;;;4.10;2.77;;;;;;;18.05;59.18;156001.66;5106590;28;20928;-89
2021/05/10 00:37:57;;;;;;;2.93;2.67;;;;;;;18.02;61.12;155992.53;5072788;28;20453;-89
2021/05/10 00:40:34;;;;;;;2.33;2.13;;;;;;;17.93;61.44;155970.38;5073761;28;20413;-89
2021/05/10 00:43:09;;;;;;;2.83;2.63;;;;;;;17.87;64.45;155953.47;5072881;28;20525;-88
2021/05/10 00:45:44;;;;;;;3.63;2.77;;;;;;;17.81;60.81;155939.16;5111054;28;20494;-88
2021/05/10 00:48:19;;;;;;;2.60;2.40;;;;;;;17.81;58.37;155937.84;5076796;28;20449;-89
2021/05/10 00:50:55;;;;;;;3.50;2.97;;;;;;;17.77;59.32;155928.69;5093355;28;20469;-88
2021/05/10 00:53:30;;;;;;;2.70;2.50;;;;;;;17.72;58.91;155915.69;5110562;28;20449;-89
2021/05/10 00:56:06;;;;;;;4.17;3.23;;;;;;;17.71;58.23;155913.13;5088521;28;20460;-88
2021/05/10 00:58:41;;;;;;;3.53;3.23;;;;;;;17.69;58.71;155906.56;5083196;28;20457;-88
2021/05/10 01:01:16;;;;;;;2.87;2.67;;;;;;;17.68;58.46;155905.28;5076361;28;20471;-88
2021/05/10 01:03:54;;;;;;;4.20;2.80;;;;;;;17.74;56.12;155919.63;5077785;28;20907;-88
2021/05/10 01:06:30;;;;;;;3.43;3.13;;;;;;;17.72;58.60;155915.69;5076372;28;20800;-89
2021/05/10 01:09:06;;;;;;;2.90;2.70;;;;;;;17.60;57.76;155884.47;5077560;28;20533;-88
2021/05/10 01:11:41;;;;;;;3.00;2.80;;;;;;;17.62;57.94;155889.66;5076220;28;20449;-88
2021/05/10 01:14:16;;;;;;;3.50;3.20;;;;;;;17.64;56.22;155894.84;5060756;28;20843;-88
2021/05/10 01:16:51;;;;;;;3.23;2.93;;;;;;;17.65;56.76;155897.47;5093051;28;20445;-88
2021/05/10 01:19:27;;;;;;;5.03;3.00;;;;;;;17.78;55.27;155931.31;5076383;28;20452;-88
2021/05/10 01:22:05;;;;;;;3.10;2.73;;;;;;;17.93;54.15;155970.38;5076048;28;20456;-88
2021/05/10 01:24:41;;;;;;;2.80;2.60;;;;;;;17.88;54.36;155957.34;5076350;28;20437;-89
2021/05/10 01:27:16;;;;;;;3.33;2.70;;;;;;;17.85;54.64;155948.22;5083729;28;20435;-89
2021/05/10 01:29:51;;;;;;;3.47;2.57;;;;;;;17.71;54.40;155913.13;5097641;28;20475;-89
2021/05/10 01:32:26;;;;;;;3.17;2.80;;;;;;;17.62;54.79;155889.66;5082227;28;20445;-89
2021/05/10 01:35:04;;;;;;;3.00;2.80;;;;;;;17.54;59.60;155868.84;5116986;28;20455;-89
2021/05/10 01:37:39;;;;;;;2.80;2.60;;;;;;;17.36;61.87;155821.94;5090296;28;20440;-89
2021/05/10 01:40:15;;;;;;;3.37;3.07;;;;;;;17.25;60.03;155793.28;5091377;28;20496;-89
2021/05/10 01:42:51;;;;;;;4.73;2.60;;;;;;;17.22;58.18;155786.78;5076442;28;20448;-89
2021/05/10 01:45:27;;;;;;;3.43;2.57;;;;;;;17.25;57.49;155794.59;5109654;28;20436;-89
2021/05/10 01:48:04;;;;;;;3.07;2.77;;;;;;;17.22;57.04;155785.47;5123622;28;20453;-89
2021/05/10 01:50:41;;;;;;;3.00;2.70;;;;;;;17.23;57.90;155788.09;5123260;28;20464;-87
2021/05/10 01:53:17;;;;;;;3.07;2.43;;;;;;;17.23;56.43;155788.09;5084899;28;20488;-89
2021/05/10 01:55:53;;;;;;;2.87;2.67;;;;;;;17.29;58.19;155803.72;5110443;28;20460;-89
2021/05/10 01:58:28;;;;;;;4.77;2.53;;;;;;;17.30;54.50;155806.28;5077797;28;20913;-89
2021/05/10 02:01:03;;;;;;;3.20;2.60;;;;;;;17.34;54.94;155818.00;5093700;28;20443;-89
2021/05/10 02:03:38;;;;;;;2.53;2.33;;;;;;;17.39;54.35;155829.75;5077624;28;20417;-89
2021/05/10 02:06:14;;;;;;;3.23;2.50;;;;;;;17.44;53.34;155842.75;5110368;28;20488;-89
2021/05/10 02:08:49;;;;;;;2.70;2.50;;;;;;;17.54;53.56;155868.84;5108675;28;20446;-89
2021/05/10 02:11:25;;;;;;;3.87;2.80;;;;;;;17.46;54.26;155847.94;5078861;28;20538;-89
2021/05/10 02:14:00;;;;;;;7.70;2.80;;;;;;;17.30;54.86;155806.28;5113166;27;20447;-90
2021/05/10 02:16:36;;;;;;;2.50;2.30;;;;;;;17.25;54.23;155793.28;5129373;27;20450;-89
2021/05/10 02:19:11;;;;;;;2.50;2.30;;;;;;;17.24;55.93;155791.97;5129033;27;20435;-89
2021/05/10 02:21:46;;;;;;;2.40;2.20;;;;;;;17.29;54.16;155803.72;5095902;28;20410;-89
2021/05/10 02:24:21;;;;;;;2.60;2.40;;;;;;;17.23;56.43;155788.09;5096085;28;20776;-89
2021/05/10 02:26:57;;;;;;;2.70;2.50;;;;;;;17.33;53.23;155814.13;5128766;27;20436;-89
2021/05/10 02:29:32;;;;;;;2.73;2.50;;;;;;;17.45;52.80;155846.63;5083448;28;20477;-89
2021/05/10 02:32:07;;;;;;;2.90;2.60;;;;;;;17.62;51.71;155889.66;5085812;28;20434;-89
2021/05/10 02:34:43;;;;;;;2.70;2.50;;;;;;;17.53;52.03;155866.22;5071566;28;20450;-89
2021/05/10 02:37:18;;;;;;;2.50;2.30;;;;;;;17.62;50.54;155889.66;5089543;28;20430;-88
2021/05/10 02:39:53;;;;;;;2.80;2.50;;;;;;;17.51;50.37;155860.97;5122725;28;20439;-89
2021/05/10 02:42:29;;;;;;;2.67;2.47;;;;;;;17.47;50.75;155850.56;5088733;28;20419;-88
2021/05/10 02:45:06;;;;;;;2.50;2.30;;;;;;;17.45;51.12;155845.34;5102327;28;20442;-89
2021/05/10 02:47:41;;;;;;;2.50;2.30;;;;;;;17.50;50.53;155858.38;5075549;28;20403;-89
2021/05/10 02:50:18;;;;;;;2.40;2.20;;;;;;;17.78;49.38;155931.31;5080966;28;20572;-88
2021/05/10 02:52:54;;;;;;;2.60;2.40;;;;;;;17.77;49.19;155928.69;5108892;28;20438;-88
2021/05/10 02:55:29;;;;;;;3.00;2.67;;;;;;;17.75;49.14;155922.19;5108359;28;20449;-88
2021/05/10 02:58:05;;;;;;;2.77;2.43;;;;;;;17.61;49.40;155888.34;5074503;28;20470;-88
2021/05/10 03:00:40;;;;;;;2.50;2.30;;;;;;;17.68;48.94;155905.28;5074994;28;20429;-88
2021/05/10 03:03:15;;;;;;;3.10;2.80;;;;;;;17.62;48.71;155889.66;5073407;28;20453;-88
2021/05/10 03:05:52;;;;;;;2.87;2.57;;;;;;;17.54;49.10;155868.84;5107347;28;20879;-88
2021/05/10 03:08:27;;;;;;;2.47;2.27;;;;;;;17.64;48.89;155896.16;5073739;28;20438;-88
2021/05/10 03:11:02;;;;;;;2.47;2.27;;;;;;;17.66;48.51;155900.06;5073656;28;20987;-88
2021/05/10 03:13:38;;;;;;;3.07;2.80;;;;;;;17.54;49.23;155870.16;5074598;28;20548;-88
2021/05/10 03:16:13;;;;;;;2.47;2.27;;;;;;;17.50;49.24;155858.38;5072661;28;20801;-88
2021/05/10 03:18:49;;;;;;;2.73;2.53;;;;;;;17.43;50.14;155840.13;5074012;28;20418;-88
2021/05/10 03:21:24;;;;;;;2.93;2.40;;;;;;;17.29;50.97;155803.72;5072624;28;20854;-88
2021/05/10 03:23:59;;;;;;;3.10;2.17;;;;;;;17.20;52.30;155781.59;5073752;28;20487;-88
2021/05/10 03:26:34;;;;;;;3.20;2.70;;;;;;;17.11;54.11;155756.84;5073649;28;20477;-88
2021/05/10 03:29:10;;;;;;;2.67;2.47;;;;;;;17.02;56.62;155736.00;5106271;28;20568;-89
2021/05/10 03:31:45;;;;;;;3.23;2.50;;;;;;;16.96;55.33;155719.13;5074433;28;20410;-88
2021/05/10 03:34:20;;;;;;;3.23;2.33;;;;;;;16.89;57.49;155702.19;5072567;28;20913;-88
2021/05/10 03:36:55;;;;;;;3.17;2.90;;;;;;;16.86;55.22;155694.41;5064751;28;20434;-88
2021/05/10 03:39:30;;;;;;;4.10;3.17;;;;;;;16.81;57.96;155681.38;5076396;28;20949;-88
2021/05/10 03:42:06;;;;;;;5.47;2.90;;;;;;;16.75;58.57;155664.47;5105125;28;20449;-88
2021/05/10 03:44:42;;;;;;;3.20;2.90;;;;;;;16.68;61.75;155646.28;5100530;28;20457;-89
2021/05/10 03:47:17;;;;;;;3.50;3.20;;;;;;;16.53;61.61;155608.53;5105261;28;20434;-89
2021/05/10 03:49:52;;;;;;;2.70;2.40;;;;;;;16.54;62.31;155611.16;5093477;28;20473;-88
2021/05/10 03:52:28;;;;;;;4.00;3.60;;;;;;;16.61;60.12;155629.34;5054577;28;20895;-88
2021/05/10 03:55:04;;;;;;;3.10;2.80;;;;;;;16.54;59.91;155611.16;5054150;28;20842;-88
2021/05/10 03:57:39;;;;;;;3.70;3.33;;;;;;;16.50;61.33;155600.66;5087047;28;20435;-87
2021/05/10 04:00:18;;;;;;;3.17;2.87;;;;;;;16.55;62.07;155612.47;5064244;28;20461;-87
2021/05/10 04:02:53;;;;;;;3.70;3.40;;;;;;;16.58;60.06;155621.53;5073103;28;20434;-88
2021/05/10 04:05:55;;;;;;;2.87;2.60;;;;;;;16.63;57.95;155634.53;5073767;28;20523;-88
2021/05/10 04:08:52;;;;;;;3.00;2.77;;;;;;;16.71;58.53;155654.03;5060225;28;20439;-87
2021/05/10 04:13:34;;;;;;;4.13;2.53;;;;;;;16.77;56.66;155670.97;5101188;28;20443;-88
2021/05/10 04:14:29;;;;;;;2.87;2.67;;;;;;;16.92;54.74;155710.00;5056755;28;20496;-88
2021/05/10 04:17:05;;;;;;;3.50;2.53;;;;;;;17.03;54.03;155738.63;5071195;28;20443;-88
2021/05/10 04:19:40;;;;;;;2.60;2.40;;;;;;;17.13;53.14;155762.06;5070779;28;20451;-88
2021/05/10 04:22:15;;;;;;;3.23;2.77;;;;;;;17.18;55.33;155775.09;5073634;28;20821;-88
2021/05/10 04:24:50;;;;;;;2.83;2.53;;;;;;;17.19;54.66;155777.66;5070597;28;20455;-87
2021/05/10 04:27:26;;;;;;;2.80;2.50;;;;;;;17.20;55.88;155780.28;5056755;28;20415;-87
2021/05/10 04:30:02;;;;;;;3.93;2.13;;;;;;;17.21;55.16;155782.91;5054196;28;20479;-87
2021/05/10 04:32:38;;;;;;;2.70;2.50;;;;;;;17.27;52.88;155799.78;5069340;28;20479;-87
2021/05/10 04:35:13;;;;;;;2.80;2.13;;;;;;;17.32;55.30;155812.81;5056917;28;20937;-87
2021/05/10 04:37:48;;;;;;;5.23;2.83;;;;;;;17.41;54.61;155836.25;5068324;28;20446;-87
2021/05/10 04:40:24;;;;;;;2.53;2.33;;;;;;;17.49;52.61;155855.78;5068418;28;20443;-87
2021/05/10 04:42:58;;;;;;;2.50;2.03;;;;;;;17.55;49.90;155871.47;5106437;28;20442;-87
2021/05/10 04:45:34;;;;;;;2.83;2.50;;;;;;;17.62;50.84;155890.97;5065898;28;20471;-87
2021/05/10 04:48:10;;;;;;;3.07;2.37;;;;;;;17.63;50.19;155892.28;5063288;28;20439;-87
2021/05/10 04:50:45;;;;;;;22.57;2.67;;;;;;;17.67;50.56;155902.69;5036426;28;20466;-87
2021/05/10 04:53:20;;;;;;;2.93;2.20;;;;;;;17.67;53.85;155902.69;5094426;28;20447;-87
2021/05/10 04:55:55;;;;;;;6.63;2.53;;;;;;;17.68;52.37;155903.97;5053314;28;20448;-87
2021/05/10 04:58:30;;;;;;;2.90;2.70;;;;;;;17.76;51.18;155926.13;5061565;28;20439;-87
2021/05/10 05:01:05;;;;;;;4.20;2.20;;;;;;;17.83;49.66;155944.34;5065994;28;20460;-86
2021/05/10 05:03:41;;;;;;;2.53;2.10;;;;;;;17.83;52.95;155943.03;5068310;28;20492;-86
2021/05/10 05:06:17;;;;;;;3.33;2.10;;;;;;;17.86;51.70;155952.16;5085411;28;20447;-87
2021/05/10 05:08:52;;;;;;;3.67;2.23;;;;;;;17.92;51.34;155967.78;5089839;28;20452;-87
2021/05/10 05:11:27;;;;;;;2.83;2.10;;;;;;;17.99;50.94;155986.00;5064182;28;20519;-86
2021/05/10 05:14:03;;;;;;;2.30;2.10;;;;;;;18.05;50.40;156000.34;5054455;28;20433;-87
2021/05/10 05:16:38;;;;;;;2.10;2.00;;;;;;;18.11;50.87;156015.94;5056508;28;20448;-87
2021/05/10 05:19:14;;;;;;;3.97;2.67;;;;;;;18.13;51.21;156022.50;5091474;28;20444;-87
2021/05/10 05:21:51;;;;;;;3.47;2.47;;;;;;;18.14;53.42;156023.75;5053973;28;20446;-87
2021/05/10 05:24:26;;;;;;;2.60;2.30;;;;;;;18.15;52.80;156027.69;5074430;28;20440;-87
2021/05/10 05:27:01;;;;;;;3.00;2.80;;;;;;;18.18;51.11;156035.50;5093176;28;20880;-87
2021/05/10 05:29:36;;;;;;;3.40;3.10;;;;;;;18.16;53.78;156029.00;5069902;28;20492;-87
2021/05/10 05:32:12;;;;;;;3.07;2.53;;;;;;;18.15;53.55;156027.69;5072191;28;20824;-87
2021/05/10 05:34:48;;;;;;;3.10;2.80;;;;;;;18.16;53.56;156029.00;5064150;28;20532;-87
2021/05/10 05:37:23;;;;;;;2.87;2.57;;;;;;;18.20;55.51;156040.69;5073600;28;20535;-86
2021/05/10 05:39:59;;;;;;;2.87;2.37;;;;;;;18.22;55.01;156045.91;5071557;28;20437;-87
2021/05/10 05:42:34;;;;;;;3.90;2.90;;;;;;;18.26;54.45;156055.03;5101318;28;20452;-87
2021/05/10 05:45:11;;;;;;;3.33;2.63;;;;;;;18.32;54.71;156069.38;5073829;28;20453;-87
2021/05/10 05:47:46;;;;;;;5.60;2.67;;;;;;;18.38;54.72;156084.97;5052055;28;20450;-87
2021/05/10 05:50:22;;;;;;;3.27;2.90;;;;;;;18.45;54.50;156103.22;5079370;28;20480;-88
2021/05/10 05:52:57;;;;;;;3.57;2.80;;;;;;;18.52;53.32;156122.81;5107518;28;20449;-86
2021/05/10 05:55:32;;;;;;;2.70;2.23;;;;;;;18.60;52.79;156142.34;5066748;28;20553;-86
2021/05/10 05:58:07;;;;;;;4.80;3.17;;;;;;;18.66;52.33;156158.00;5081752;28;20449;-86
2021/05/10 06:00:43;;;;;;;3.63;3.07;;;;;;;18.69;53.43;156165.81;5093076;28;21134;-86
2021/05/10 06:03:18;;;;;;;4.50;2.60;;;;;;;18.73;52.18;156176.22;5098636;28;20946;-87
2021/05/10 06:05:54;;;;;;;6.60;3.00;;;;;;;18.80;51.27;156195.75;5055190;28;20462;-87
2021/05/10 06:08:29;;;;;;;3.50;2.40;;;;;;;18.88;54.28;156215.28;5074615;28;20486;-87
2021/05/10 06:11:06;;;;;;;4.90;2.30;;;;;;;18.86;52.79;156210.09;5070248;28;20486;-86
2021/05/10 06:13:41;;;;;;;3.60;2.30;;;;;;;18.90;51.81;156219.22;5054400;28;20788;-87
2021/05/10 06:16:16;;;;;;;2.70;2.50;;;;;;;18.93;50.68;156228.31;5054665;28;20810;-87
2021/05/10 06:18:51;;;;;;;4.00;2.97;;;;;;;18.97;50.27;156238.75;5091314;28;20462;-87
2021/05/10 06:21:27;;;;;;;4.00;2.40;;;;;;;19.05;50.32;156259.59;5062678;28;20475;-87
2021/05/10 06:24:03;;;;;;;4.63;2.63;;;;;;;19.19;50.15;156294.81;5070985;28;20447;-88
2021/05/10 06:26:40;;;;;;;4.20;2.20;;;;;;;19.33;50.15;156332.56;5071364;28;20442;-87
2021/05/10 06:29:15;;;;;;;3.57;2.53;;;;;;;19.42;49.31;156356.09;5056124;28;20470;-87
2021/05/10 06:31:50;;;;;;;3.00;2.53;;;;;;;19.53;50.01;156382.16;5108469;28;20458;-88
2021/05/10 06:34:25;;;;;;;2.70;2.30;;;;;;;19.58;49.65;156395.19;5101726;28;20434;-87
2021/05/10 06:37:01;;;;;;;2.30;2.10;;;;;;;19.61;52.77;156403.03;5087856;28;20438;-88
2021/05/10 06:39:36;;;;;;;3.97;2.60;;;;;;;19.74;50.22;156436.91;5071253;28;20443;-87
2021/05/10 06:42:11;;;;;;;4.30;3.30;;;;;;;19.80;48.40;156453.84;5087057;28;20443;-88
2021/05/10 06:44:47;;;;;;;6.20;3.50;;;;;;;19.78;49.03;156447.31;5103778;28;20442;-88
2021/05/10 06:47:22;;;;;;;5.83;3.73;;;;;;;19.74;50.21;156436.91;5058981;28;20450;-87
2021/05/10 06:49:57;;;;;;;3.00;2.70;;;;;;;19.76;49.60;156442.13;5074694;28;20825;-88
2021/05/10 06:52:33;;;;;;;5.50;2.90;;;;;;;19.89;49.05;156476.03;5075222;28;20776;-87
2021/05/10 06:55:09;;;;;;;2.90;2.60;;;;;;;19.97;50.84;156496.88;5081262;28;20461;-88
2021/05/10 06:57:44;;;;;;;3.33;3.00;;;;;;;20.10;48.83;156530.78;5088047;28;20430;-86
2021/05/10 07:00:19;;;;;;;3.20;2.30;;;;;;;20.20;48.86;156555.59;5089626;28;20796;-87
2021/05/10 07:02:54;;;;;;;2.73;2.53;;;;;;;20.24;48.11;156566.06;5095190;28;20437;-88
2021/05/10 07:05:30;;;;;;;2.77;2.40;;;;;;;20.28;48.20;156577.78;5095129;28;20440;-88
2021/05/10 07:08:09;;;;;;;3.10;2.80;;;;;;;20.29;47.19;156580.41;5094670;28;20429;-86
2021/05/10 07:10:48;;;;;;;5.20;3.30;;;;;;;20.30;48.31;156581.72;5089455;28;20474;-86
2021/05/10 07:13:24;;;;;;;5.00;3.30;;;;;;;20.23;48.48;156564.69;5088345;28;20442;-87
2021/05/10 07:15:58;;;;;;;2.67;2.47;;;;;;;20.21;47.83;156559.50;5079048;28;20454;-86
2021/05/10 07:18:34;;;;;;;4.07;2.70;;;;;;;20.27;49.61;156575.19;5075187;28;20418;-87
2021/05/10 07:21:09;;;;;;;4.47;3.17;;;;;;;20.47;49.55;156626.03;5107790;28;20445;-87
2021/05/10 07:23:46;;;;;;;3.60;2.67;;;;;;;20.67;48.83;156676.94;5107865;28;20433;-87
2021/05/10 07:26:21;;;;;;;4.30;2.70;;;;;;;21.02;48.83;156769.56;5107394;28;20540;-88
2021/05/10 07:28:56;;;;;;;3.70;3.10;;;;;;;21.32;48.70;156845.31;5107505;28;20956;-87
2021/05/10 07:31:31;;;;;;;3.90;3.00;;;;;;;21.60;48.97;156919.75;5075226;28;20546;-88
2021/05/10 07:34:06;;;;;;;4.00;3.10;;;;;;;21.77;48.92;156964.09;5074648;28;20429;-88
2021/05/10 07:36:42;;;;;;;4.83;2.97;;;;;;;21.79;48.92;156969.31;5087069;28;20450;-89
2021/05/10 07:39:18;;;;;;;7.40;3.07;;;;;;;21.60;48.42;156919.75;5054706;28;20809;-89
2021/05/10 07:41:53;;;;;;;3.10;2.80;;;;;;;21.47;49.22;156885.75;5074706;28;20806;-88
2021/05/10 07:44:30;;;;;;;6.43;3.10;;;;;;;21.97;48.75;157015.09;5073351;28;20457;-89
2021/05/10 07:47:05;;;;;;;3.53;3.23;;;;;;;22.13;50.27;157056.88;5075037;28;20525;-88
2021/05/10 07:49:40;;;;;;;3.00;2.70;;;;;;;21.82;48.99;156975.84;5074296;28;20474;-88
2021/05/10 07:52:15;;;;;;;4.10;3.00;;;;;;;21.68;48.22;156940.59;5057687;28;20450;-88
2021/05/10 07:54:51;;;;;;;3.23;2.70;;;;;;;21.56;49.82;156907.97;5075493;28;20442;-89
2021/05/10 07:57:27;;;;;;;4.23;3.20;;;;;;;21.54;52.90;156902.75;5073534;28;20525;-89
2021/05/10 08:00:06;;;;;;;4.47;3.00;;;;;;;21.48;49.93;156888.38;5077088;28;20430;-89
2021/05/10 08:02:53;;;;;;;3.90;2.83;;;;;;;21.40;50.94;156866.19;5072959;28;20836;-89
2021/05/10 08:05:29;;;;;;;4.17;3.10;;;;;;;21.29;50.76;156837.50;5073824;28;20438;-89
2021/05/10 08:08:04;;;;;;;4.83;3.10;;;;;;;21.13;52.05;156797.00;5073630;28;20450;-90
2021/05/10 08:10:40;;;;;;;5.10;2.90;;;;;;;21.07;51.55;156781.38;5058815;28;20497;-89
2021/05/10 08:13:15;;;;;;;4.30;3.27;;;;;;;21.21;51.73;156819.22;5058528;28;20430;-89
2021/05/10 08:15:50;;;;;;;8.23;3.67;;;;;;;21.54;51.08;156904.06;5058864;28;20449;-89
2021/05/10 08:18:26;;;;;;;6.63;3.07;;;;;;;21.84;50.60;156982.38;5074800;28;20478;-89
2021/05/10 08:21:01;;;;;;;5.93;3.10;;;;;;;21.68;50.67;156939.31;5053469;28;20442;-89
2021/05/10 08:23:36;;;;;;;3.80;3.00;;;;;;;21.35;51.48;156853.13;5082465;28;20469;-89
2021/05/10 08:26:12;;;;;;;3.40;3.10;;;;;;;21.60;51.96;156919.75;5058930;28;20422;-90
2021/05/10 08:28:48;;;;;;;4.20;3.33;;;;;;;21.98;51.60;157016.38;5059110;28;20531;-89
2021/05/10 08:31:23;;;;;;;3.13;2.87;;;;;;;22.14;51.90;157059.47;5059153;28;20470;-89
2021/05/10 08:33:58;;;;;;;3.80;3.10;;;;;;;21.71;52.03;156947.16;5061732;28;20441;-89
2021/05/10 08:36:33;;;;;;;3.20;2.90;;;;;;;21.48;52.61;156888.38;5071008;28;20434;-90
2021/05/10 08:39:09;;;;;;;8.57;4.10;;;;;;;21.32;52.85;156846.63;5074810;28;20465;-89
2021/05/10 08:41:45;;;;;;;3.20;2.90;;;;;;;21.21;53.04;156817.91;5056859;28;20415;-89
2021/05/10 08:44:22;;;;;;;5.73;4.30;;;;;;;21.11;53.83;156791.81;5106636;28;20426;-89
2021/05/10 08:46:59;;;;;;;4.97;3.20;;;;;;;21.08;54.24;156785.28;5059601;28;20437;-89
2021/05/10 08:49:34;;;;;;;3.63;3.17;;;;;;;21.01;54.30;156765.66;5059551;28;20500;-89
2021/05/10 08:52:09;;;;;;;4.37;3.20;;;;;;;21.14;54.52;156800.94;5057327;28;20438;-89
2021/05/10 08:54:44;;;;;;;4.07;3.40;;;;;;;21.14;54.73;156800.94;5092546;28;20924;-89
2021/05/10 08:57:20;;;;;;;3.53;3.10;;;;;;;21.12;54.34;156794.44;5057450;28;20426;-88
2021/05/10 08:59:56;;;;;;;5.90;3.07;;;;;;;21.24;54.79;156825.72;5058680;28;20759;-90
2021/05/10 09:02:31;;;;;;;3.90;3.50;;;;;;;21.20;54.34;156816.63;5073707;28;20422;-89
2021/05/10 09:05:14;;;;;;;3.70;3.17;;;;;;;20.89;55.07;156734.38;5075725;28;20453;-89
2021/05/10 09:08:06;;;;;;;3.50;3.07;;;;;;;20.72;55.68;156691.28;5076093;28;20964;-89
2021/05/10 09:10:41;;;;;;;7.00;3.20;;;;;;;20.96;55.96;156752.63;5111845;28;20573;-89
2021/05/10 09:13:32;;;;;;;3.43;3.13;;;;;;;21.12;56.05;156794.44;5111417;28;20434;-89
2021/05/10 09:16:08;;;;;;;6.27;3.67;;;;;;;21.12;54.71;156794.44;5076490;28;20478;-89
2021/05/10 09:18:51;;;;;;;2.83;2.50;;;;;;;21.04;56.20;156773.50;5078684;28;20448;-89
2021/05/10 09:21:27;;;;;;;6.60;2.43;;;;;;;21.10;55.68;156789.22;5077528;28;20426;-89
2021/05/10 09:24:19;;;;;;;4.40;3.13;;;;;;;20.87;55.96;156729.09;5077909;28;20434;-89
2021/05/10 09:26:54;;;;;;;4.20;2.70;;;;;;;20.89;57.54;156734.38;5077153;28;20418;-89
2021/05/10 09:29:30;;;;;;;3.10;2.87;;;;;;;20.82;55.88;156716.06;5078135;28;20950;-90
2021/05/10 09:32:07;;;;;;;6.53;3.40;;;;;;;20.67;55.57;156678.25;5109695;28;20458;-92
2021/05/10 09:34:42;;;;;;;3.10;2.87;;;;;;;20.87;58.04;156729.09;5078720;28;20759;-90
2021/05/10 09:37:26;;;;;;;4.40;2.77;;;;;;;21.27;56.03;156833.56;5109977;28;20442;-90
2021/05/10 09:40:03;;;;;;;4.83;3.30;;;;;;;21.50;57.02;156892.34;5079032;28;20422;-90
2021/05/10 09:42:49;;;;;;;5.20;3.60;;;;;;;21.75;55.24;156958.91;5060009;28;20441;-90
2021/05/10 09:45:33;;;;;;;4.77;3.57;;;;;;;22.16;56.58;157063.41;5077738;28;20446;-90
2021/05/10 09:48:15;;;;;;;5.50;3.27;;;;;;;21.88;55.07;156991.56;5077539;28;20427;-90
2021/05/10 09:50:53;;;;;;;3.93;3.53;;;;;;;22.04;54.93;157032.03;5110781;28;20474;-90
2021/05/10 09:53:36;;;;;;;3.63;3.00;;;;;;;22.22;53.79;157079.06;5077614;28;20430;-90
2021/05/10 09:56:27;;;;;;;4.67;3.20;;;;;;;21.71;54.81;156947.16;5061938;28;20529;-90
2021/05/10 09:59:04;;;;;;;4.03;2.80;;;;;;;21.71;56.16;156948.44;5123767;28;20442;-90
2021/05/10 10:01:43;;;;;;;2.93;2.63;;;;;;;21.94;55.22;157005.94;5095314;28;20475;-89
2021/05/10 10:04:19;;;;;;;3.07;2.60;;;;;;;22.00;53.76;157021.63;5066893;28;20436;-89
2021/05/10 10:06:54;;;;;;;2.70;2.10;;;;;;;21.95;55.30;157008.56;5089784;28;20462;-89
2021/05/10 10:09:30;;;;;;;3.33;2.40;;;;;;;22.20;53.66;157073.84;5092875;28;20918;-89
2021/05/10 10:12:05;;;;;;;4.10;1.90;;;;;;;21.97;53.42;157015.09;5108814;28;20434;-89
2021/05/10 10:14:42;;;;;;;2.20;2.00;;;;;;;21.97;53.46;157015.09;5076281;28;20453;-89
2021/05/10 10:17:18;;;;;;;3.10;2.20;;;;;;;22.03;52.50;157030.72;5060006;28;20437;-89
2021/05/10 10:19:54;;;;;;;3.60;2.00;;;;;;;21.81;52.01;156974.56;5076084;28;20446;-89
2021/05/10 10:22:30;;;;;;;2.20;1.70;;;;;;;21.35;53.16;156854.44;5075153;28;20446;-89
2021/05/10 10:25:06;;;;;;;1.80;1.70;;;;;;;21.42;52.84;156871.44;5078066;28;20916;-90
2021/05/10 10:27:41;;;;;;;2.27;1.60;;;;;;;21.51;52.27;156896.22;5074695;28;20817;-89
2021/05/10 10:30:17;;;;;;;2.43;1.67;;;;;;;21.43;53.20;156874.03;5077003;28;20477;-89
2021/05/10 10:32:53;;;;;;;1.70;1.50;;;;;;;21.54;53.50;156904.06;5059589;28;20430;-89
2021/05/10 10:35:28;;;;;;;3.03;1.37;;;;;;;21.63;53.79;156927.53;5110188;28;20476;-89
2021/05/10 10:38:05;;;;;;;1.80;1.33;;;;;;;21.76;53.83;156960.22;5059886;28;20438;-89
2021/05/10 10:40:40;;;;;;;1.93;1.40;;;;;;;21.59;53.68;156917.13;5075305;28;20450;-89
2021/05/10 10:43:23;;;;;;;2.00;1.60;;;;;;;21.68;53.95;156940.59;5075017;28;20441;-89
2021/05/10 10:46:23;;;;;;;1.60;1.03;;;;;;;21.77;52.79;156964.09;5090714;28;20445;-88
2021/05/10 10:49:26;;;;;;;1.67;1.30;;;;;;;21.59;52.83;156917.13;5095734;28;20445;-89
2021/05/10 10:52:02;;;;;;;2.10;1.30;;;;;;;21.41;52.97;156870.13;5055530;28;20431;-89
2021/05/10 10:54:37;;;;;;;1.63;1.53;;;;;;;21.65;53.21;156932.78;5092600;28;20616;-89
2021/05/10 10:57:31;;;;;;;2.80;2.00;;;;;;;21.59;52.32;156917.13;5074410;28;20430;-89
2021/05/10 11:00:13;;;;;;;1.70;1.50;;;;;;;21.77;53.26;156964.09;5075491;28;20921;-90
2021/05/10 11:02:51;;;;;;;3.30;1.10;;;;;;;21.42;53.81;156872.72;5107919;28;20773;-90
2021/05/10 11:05:27;;;;;;;1.87;1.57;;;;;;;20.67;54.83;156676.94;5059956;28;20441;-90
2021/05/10 11:08:04;;;;;;;1.60;1.20;;;;;;;21.04;54.50;156773.50;5075770;28;20450;-89
2021/05/10 11:10:46;;;;;;;2.90;1.73;;;;;;;21.05;54.78;156776.06;5087464;28;20868;-90
2021/05/10 11:13:36;;;;;;;2.53;1.30;;;;;;;21.15;54.35;156803.53;5078976;28;20916;-90
2021/05/10 11:16:14;;;;;;;1.70;1.47;;;;;;;20.80;54.44;156710.84;5073748;28;20470;-90
2021/05/10 11:18:51;;;;;;;2.20;1.60;;;;;;;20.62;56.28;156665.22;5108007;28;20445;-90
2021/05/10 11:21:41;;;;;;;2.33;1.80;;;;;;;20.35;56.53;156594.75;5074767;28;20921;-90
2021/05/10 11:24:24;;;;;;;7.23;1.93;;;;;;;20.48;58.48;156628.66;5074850;28;20446;-90
2021/05/10 11:27:03;;;;;;;2.80;2.03;;;;;;;20.69;56.79;156682.16;5074940;28;20418;-90
2021/05/10 11:29:45;;;;;;;2.10;1.90;;;;;;;20.76;55.95;156700.44;5075029;28;20473;-91
2021/05/10 11:32:31;;;;;;;2.07;1.73;;;;;;;20.77;57.90;156703.03;5073762;28;20844;-90
2021/05/10 11:35:26;;;;;;;2.90;1.70;;;;;;;20.67;56.25;156676.94;5074817;28;20437;-90
2021/05/10 11:38:07;;;;;;;2.93;1.63;;;;;;;20.51;57.08;156636.50;5073708;28;20431;-91
2021/05/10 11:40:46;;;;;;;2.00;1.63;;;;;;;20.67;56.58;156678.25;5074991;28;20442;-90
2021/05/10 11:43:21;;;;;;;1.50;1.30;;;;;;;20.58;56.05;156654.75;5091171;28;20450;-90
2021/05/10 11:45:57;;;;;;;2.37;1.20;;;;;;;20.73;55.87;156692.63;5068585;28;20457;-89
2021/05/10 11:48:41;;;;;;;1.47;1.30;;;;;;;20.62;55.78;156666.47;5075451;28;20454;-90
2021/05/10 11:51:20;;;;;;;5.03;1.70;;;;;;;20.74;55.51;156695.19;5077595;28;20573;-91
2021/05/10 11:53:58;;;;;;;1.23;1.10;;;;;;;20.56;54.96;156650.84;5075306;28;20509;-91
2021/05/10 11:56:39;;;;;;;2.97;2.30;;;;;;;20.60;54.92;156661.28;5093424;28;20454;-91
2021/05/10 12:02:17;;;;;;;1.10;0.93;;;;;;;20.39;53.87;156605.16;5073379;28;20423;-91
2021/05/10 12:04:54;;;;;;;1.20;1.00;;;;;;;20.45;53.94;156620.84;5079835;28;20441;-91
2021/05/10 12:07:31;;;;;;;3.60;1.10;;;;;;;20.50;55.68;156635.19;5094626;28;20417;-90
2021/05/10 12:10:07;;;;;;;1.43;1.20;;;;;;;20.50;53.36;156635.19;5087837;28;20462;-91
2021/05/10 12:12:44;;;;;;;2.80;1.73;;;;;;;20.43;54.46;156616.94;5079986;28;20500;-90